sensor_id;sensor_type;location;lat;lon;timestamp;pressure;altitude;pressure_sealevel;temperature;humidity
63088;BME280;49173;43.164;27.786;2023-12-29T00:02:11;100997.44;;;5.98;89.78
63088;BME280;49173;43.164;27.786;2023-12-29T00:04:38;100987.44;;;6.08;90.34
63088;BME280;49173;43.164;27.786;2023-12-29T00:07:05;100983.72;;;6.14;90.15
63088;BME280;49173;43.164;27.786;2023-12-29T00:09:34;100991.59;;;6.18;89.78
63088;BME280;49173;43.164;27.786;2023-12-29T00:12:07;100991.63;;;6.17;89.40
63088;BME280;49173;43.164;27.786;2023-12-29T00:14:38;100989.06;;;6.14;89.28
63088;BME280;49173;43.164;27.786;2023-12-29T00:17:09;100997.16;;;6.09;88.85
63088;BME280;49173;43.164;27.786;2023-12-29T00:19:39;100997.31;;;6.03;88.47
63088;BME280;49173;43.164;27.786;2023-12-29T00:22:08;101008.13;;;5.97;87.44
63088;BME280;49173;43.164;27.786;2023-12-29T00:24:34;101004.72;;;5.92;87.36
63088;BME280;49173;43.164;27.786;2023-12-29T00:27:02;101005.75;;;5.85;87.34
63088;BME280;49173;43.164;27.786;2023-12-29T00:29:29;101011.31;;;5.75;87.08
63088;BME280;49173;43.164;27.786;2023-12-29T00:32:00;101001.78;;;5.67;87.35
63088;BME280;49173;43.164;27.786;2023-12-29T00:34:30;100998.47;;;5.57;87.79
63088;BME280;49173;43.164;27.786;2023-12-29T00:36:58;100989.75;;;5.49;87.80
63088;BME280;49173;43.164;27.786;2023-12-29T00:39:31;100986.28;;;5.47;88.30
63088;BME280;49173;43.164;27.786;2023-12-29T00:42:09;100987.34;;;5.40;88.00
63088;BME280;49173;43.164;27.786;2023-12-29T00:44:36;100999.88;;;5.35;87.85
63088;BME280;49173;43.164;27.786;2023-12-29T00:47:02;100999.13;;;5.30;88.02
63088;BME280;49173;43.164;27.786;2023-12-29T00:49:30;100995.69;;;5.24;87.78
63088;BME280;49173;43.164;27.786;2023-12-29T00:51:58;100998.47;;;5.18;87.71
63088;BME280;49173;43.164;27.786;2023-12-29T00:54:27;100989.72;;;5.15;88.48
63088;BME280;49173;43.164;27.786;2023-12-29T00:56:56;100987.91;;;5.15;89.12
63088;BME280;49173;43.164;27.786;2023-12-29T00:59:23;100996.78;;;5.16;90.13
63088;BME280;49173;43.164;27.786;2023-12-29T01:01:50;101000.22;;;5.19;89.72
63088;BME280;49173;43.164;27.786;2023-12-29T01:04:22;100999.31;;;5.20;90.35
63088;BME280;49173;43.164;27.786;2023-12-29T01:06:51;100992.16;;;5.24;91.60
63088;BME280;49173;43.164;27.786;2023-12-29T01:09:19;100998.25;;;5.28;91.95
63088;BME280;49173;43.164;27.786;2023-12-29T01:11:46;101000.91;;;5.29;92.52
63088;BME280;49173;43.164;27.786;2023-12-29T01:14:15;101003.53;;;5.31;92.64
63088;BME280;49173;43.164;27.786;2023-12-29T01:16:41;101007.06;;;5.31;92.18
63088;BME280;49173;43.164;27.786;2023-12-29T01:19:11;101006.16;;;5.32;90.75
63088;BME280;49173;43.164;27.786;2023-12-29T01:21:43;100990.28;;;5.28;90.21
63088;BME280;49173;43.164;27.786;2023-12-29T01:24:12;100990.50;;;5.18;90.10
63088;BME280;49173;43.164;27.786;2023-12-29T01:26:38;100983.47;;;5.14;90.47
63088;BME280;49173;43.164;27.786;2023-12-29T01:29:06;100974.63;;;5.15;90.28
63088;BME280;49173;43.164;27.786;2023-12-29T01:31:34;100971.22;;;5.07;90.60
63088;BME280;49173;43.164;27.786;2023-12-29T01:34:03;100966.00;;;5.04;91.36
63088;BME280;49173;43.164;27.786;2023-12-29T01:36:30;100960.53;;;5.10;91.05
63088;BME280;49173;43.164;27.786;2023-12-29T01:38:59;100951.63;;;5.11;91.14
63088;BME280;49173;43.164;27.786;2023-12-29T01:41:26;100949.88;;;5.10;91.39
63088;BME280;49173;43.164;27.786;2023-12-29T01:46:28;100952.47;;;5.13;92.27
63088;BME280;49173;43.164;27.786;2023-12-29T01:48:55;100950.63;;;5.17;92.61
63088;BME280;49173;43.164;27.786;2023-12-29T01:51:26;100962.97;;;5.19;92.49
63088;BME280;49173;43.164;27.786;2023-12-29T01:53:54;100956.00;;;5.15;91.97
63088;BME280;49173;43.164;27.786;2023-12-29T01:56:21;100951.53;;;5.14;91.55
63088;BME280;49173;43.164;27.786;2023-12-29T01:58:53;100941.72;;;5.18;91.02
63088;BME280;49173;43.164;27.786;2023-12-29T02:01:21;100936.41;;;5.18;91.40
63088;BME280;49173;43.164;27.786;2023-12-29T02:03:51;100926.59;;;5.20;92.15
63088;BME280;49173;43.164;27.786;2023-12-29T02:06:19;100931.84;;;5.23;92.55
63088;BME280;49173;43.164;27.786;2023-12-29T02:08:55;100932.63;;;5.27;92.75
63088;BME280;49173;43.164;27.786;2023-12-29T02:11:25;100934.38;;;5.28;91.58
63088;BME280;49173;43.164;27.786;2023-12-29T02:14:01;100927.38;;;5.25;91.10
63088;BME280;49173;43.164;27.786;2023-12-29T02:19:01;100929.25;;;5.21;90.63
63088;BME280;49173;43.164;27.786;2023-12-29T02:21:39;100921.31;;;5.18;90.41
63088;BME280;49173;43.164;27.786;2023-12-29T02:24:07;100933.88;;;5.12;90.54
63088;BME280;49173;43.164;27.786;2023-12-29T02:26:36;100933.00;;;5.11;90.85
63088;BME280;49173;43.164;27.786;2023-12-29T02:29:04;100931.31;;;5.09;90.15
63088;BME280;49173;43.164;27.786;2023-12-29T02:31:35;100923.28;;;5.10;90.58
63088;BME280;49173;43.164;27.786;2023-12-29T02:34:06;100912.69;;;5.07;90.62
63088;BME280;49173;43.164;27.786;2023-12-29T02:36:41;100917.13;;;5.08;90.19
63088;BME280;49173;43.164;27.786;2023-12-29T02:39:16;100911.81;;;5.07;89.83
63088;BME280;49173;43.164;27.786;2023-12-29T02:41:42;100905.72;;;5.03;89.92
63088;BME280;49173;43.164;27.786;2023-12-29T02:44:13;100906.69;;;4.99;90.27
63088;BME280;49173;43.164;27.786;2023-12-29T02:46:41;100906.81;;;4.93;90.55
63088;BME280;49173;43.164;27.786;2023-12-29T02:49:12;100914.06;;;4.88;90.79
63088;BME280;49173;43.164;27.786;2023-12-29T02:51:39;100913.19;;;4.86;90.55
63088;BME280;49173;43.164;27.786;2023-12-29T02:54:06;100910.53;;;4.87;90.88
63088;BME280;49173;43.164;27.786;2023-12-29T02:56:36;100907.75;;;4.92;90.20
63088;BME280;49173;43.164;27.786;2023-12-29T02:59:06;100902.63;;;4.83;90.46
63088;BME280;49173;43.164;27.786;2023-12-29T03:01:35;100906.22;;;4.82;89.90
63088;BME280;49173;43.164;27.786;2023-12-29T03:04:02;100900.91;;;4.82;89.57
63088;BME280;49173;43.164;27.786;2023-12-29T03:06:30;100902.63;;;4.83;89.20
63088;BME280;49173;43.164;27.786;2023-12-29T03:09:00;100902.63;;;4.83;89.11
63088;BME280;49173;43.164;27.786;2023-12-29T03:11:27;100895.78;;;4.73;89.41
63088;BME280;49173;43.164;27.786;2023-12-29T03:13:53;100901.25;;;4.66;89.89
63088;BME280;49173;43.164;27.786;2023-12-29T03:16:20;100894.31;;;4.59;90.20
63088;BME280;49173;43.164;27.786;2023-12-29T03:18:46;100900.56;;;4.57;90.06
63088;BME280;49173;43.164;27.786;2023-12-29T03:21:13;100897.19;;;4.49;90.16
63088;BME280;49173;43.164;27.786;2023-12-29T03:23:43;100898.88;;;4.53;89.81
63088;BME280;49173;43.164;27.786;2023-12-29T03:26:10;100902.47;;;4.52;89.31
63088;BME280;49173;43.164;27.786;2023-12-29T03:28:42;100906.91;;;4.51;89.14
63088;BME280;49173;43.164;27.786;2023-12-29T03:31:11;100907.88;;;4.47;89.47
63088;BME280;49173;43.164;27.786;2023-12-29T03:33:43;100899.97;;;4.44;89.51
63088;BME280;49173;43.164;27.786;2023-12-29T03:36:09;100893.78;;;4.42;89.35
63088;BME280;49173;43.164;27.786;2023-12-29T03:38:42;100897.28;;;4.46;88.87
63088;BME280;49173;43.164;27.786;2023-12-29T03:41:08;100895.44;;;4.48;89.03
63088;BME280;49173;43.164;27.786;2023-12-29T03:43:35;100895.44;;;4.48;88.66
63088;BME280;49173;43.164;27.786;2023-12-29T03:46:01;100887.50;;;4.46;88.70
63088;BME280;49173;43.164;27.786;2023-12-29T03:48:27;100891.03;;;4.47;88.15
63088;BME280;49173;43.164;27.786;2023-12-29T03:50:54;100884.09;;;4.39;88.30
63088;BME280;49173;43.164;27.786;2023-12-29T03:53:28;100885.16;;;4.32;88.63
63088;BME280;49173;43.164;27.786;2023-12-29T03:55:54;100880.75;;;4.31;89.13
63088;BME280;49173;43.164;27.786;2023-12-29T03:58:21;100884.28;;;4.32;89.68
63088;BME280;49173;43.164;27.786;2023-12-29T04:00:47;100894.91;;;4.32;89.61
63088;BME280;49173;43.164;27.786;2023-12-29T04:03:14;100894.03;;;4.31;90.10
63088;BME280;49173;43.164;27.786;2023-12-29T04:05:41;100885.94;;;4.36;89.76
63088;BME280;49173;43.164;27.786;2023-12-29T04:08:10;100886.06;;;4.31;90.03
63088;BME280;49173;43.164;27.786;2023-12-29T04:10:39;100885.19;;;4.31;89.92
63088;BME280;49173;43.164;27.786;2023-12-29T04:13:09;100880.72;;;4.33;89.62
63088;BME280;49173;43.164;27.786;2023-12-29T04:15:35;100889.50;;;4.35;89.79
63088;BME280;49173;43.164;27.786;2023-12-29T04:18:02;100895.69;;;4.35;89.42
63088;BME280;49173;43.164;27.786;2023-12-29T04:20:31;100895.69;;;4.37;89.24
63088;BME280;49173;43.164;27.786;2023-12-29T04:22:58;100908.06;;;4.36;89.04
63088;BME280;49173;43.164;27.786;2023-12-29T04:25:31;100914.28;;;4.37;89.20
63088;BME280;49173;43.164;27.786;2023-12-29T04:27:58;100914.25;;;4.38;89.00
63088;BME280;49173;43.164;27.786;2023-12-29T04:30:28;100918.66;;;4.39;89.15
63088;BME280;49173;43.164;27.786;2023-12-29T04:32:57;100924.88;;;4.38;88.80
63088;BME280;49173;43.164;27.786;2023-12-29T04:35:26;100919.84;;;4.25;89.09
63088;BME280;49173;43.164;27.786;2023-12-29T04:37:55;100927.00;;;4.21;89.23
63088;BME280;49173;43.164;27.786;2023-12-29T04:40:24;100928.72;;;4.24;89.15
63088;BME280;49173;43.164;27.786;2023-12-29T04:42:56;100932.53;;;4.10;89.72
63088;BME280;49173;43.164;27.786;2023-12-29T04:45:22;100932.41;;;4.17;89.42
63088;BME280;49173;43.164;27.786;2023-12-29T04:47:52;100932.53;;;4.10;89.63
63088;BME280;49173;43.164;27.786;2023-12-29T04:50:18;100943.16;;;4.10;89.26
63088;BME280;49173;43.164;27.786;2023-12-29T04:52:48;100934.47;;;4.01;89.54
63088;BME280;49173;43.164;27.786;2023-12-29T04:55:17;100933.50;;;4.05;89.32
63088;BME280;49173;43.164;27.786;2023-12-29T04:57:47;100929.00;;;4.08;88.58
63088;BME280;49173;43.164;27.786;2023-12-29T05:00:14;100930.78;;;4.08;88.69
63088;BME280;49173;43.164;27.786;2023-12-29T05:02:43;100931.66;;;4.10;88.62
63088;BME280;49173;43.164;27.786;2023-12-29T05:05:12;100932.50;;;4.12;88.90
63088;BME280;49173;43.164;27.786;2023-12-29T05:07:40;100928.94;;;4.13;88.55
63088;BME280;49173;43.164;27.786;2023-12-29T05:10:09;100924.47;;;4.13;88.80
63088;BME280;49173;43.164;27.786;2023-12-29T05:12:36;100928.88;;;4.14;88.58
63088;BME280;49173;43.164;27.786;2023-12-29T05:15:04;100925.31;;;4.16;88.66
63088;BME280;49173;43.164;27.786;2023-12-29T05:17:31;100927.09;;;4.17;88.30
63088;BME280;49173;43.164;27.786;2023-12-29T05:20:02;100935.97;;;4.14;88.04
63088;BME280;49173;43.164;27.786;2023-12-29T05:22:33;100934.16;;;4.18;87.46
63088;BME280;49173;43.164;27.786;2023-12-29T05:25:02;100929.75;;;4.17;87.67
63088;BME280;49173;43.164;27.786;2023-12-29T05:27:29;100930.78;;;4.09;87.79
63088;BME280;49173;43.164;27.786;2023-12-29T05:29:58;100928.13;;;4.08;88.37
63088;BME280;49173;43.164;27.786;2023-12-29T05:32:27;100924.63;;;4.06;88.08
63088;BME280;49173;43.164;27.786;2023-12-29T05:34:55;100924.59;;;4.07;88.43
63088;BME280;49173;43.164;27.786;2023-12-29T05:37:25;100928.13;;;4.08;88.22
63088;BME280;49173;43.164;27.786;2023-12-29T05:39:55;100930.78;;;4.08;88.33
63088;BME280;49173;43.164;27.786;2023-12-29T05:42:22;100923.56;;;4.14;88.58
63088;BME280;49173;43.164;27.786;2023-12-29T05:44:49;100920.91;;;4.16;88.05
63088;BME280;49173;43.164;27.786;2023-12-29T05:47:21;100919.97;;;4.19;88.28
63088;BME280;49173;43.164;27.786;2023-12-29T05:49:54;100925.22;;;4.22;88.42
63088;BME280;49173;43.164;27.786;2023-12-29T05:52:24;100927.81;;;4.25;88.21
63088;BME280;49173;43.164;27.786;2023-12-29T05:54:53;100929.50;;;4.29;88.30
63088;BME280;49173;43.164;27.786;2023-12-29T05:57:22;100925.03;;;4.31;88.35
63088;BME280;49173;43.164;27.786;2023-12-29T05:59:51;100924.16;;;4.30;88.01
63088;BME280;49173;43.164;27.786;2023-12-29T06:02:20;100921.50;;;4.30;88.27
63088;BME280;49173;43.164;27.786;2023-12-29T06:04:49;100918.78;;;4.33;87.80
63088;BME280;49173;43.164;27.786;2023-12-29T06:07:21;100924.88;;;4.38;87.63
63088;BME280;49173;43.164;27.786;2023-12-29T06:09:47;100925.78;;;4.37;87.66
63088;BME280;49173;43.164;27.786;2023-12-29T06:12:19;100924.84;;;4.40;87.26
63088;BME280;49173;43.164;27.786;2023-12-29T06:14:48;100926.66;;;4.36;87.75
63088;BME280;49173;43.164;27.786;2023-12-29T06:17:17;100927.41;;;4.45;87.22
63088;BME280;49173;43.164;27.786;2023-12-29T06:19:47;100924.75;;;4.45;87.20
63088;BME280;49173;43.164;27.786;2023-12-29T06:22:13;100918.53;;;4.46;87.25
63088;BME280;49173;43.164;27.786;2023-12-29T06:24:40;100922.03;;;4.48;87.47
63088;BME280;49173;43.164;27.786;2023-12-29T06:27:09;100929.13;;;4.47;87.39
63088;BME280;49173;43.164;27.786;2023-12-29T06:29:40;100930.94;;;4.45;87.57
63088;BME280;49173;43.164;27.786;2023-12-29T06:32:08;100933.56;;;4.47;87.70
63088;BME280;49173;43.164;27.786;2023-12-29T06:34:36;100931.75;;;4.49;88.10
63088;BME280;49173;43.164;27.786;2023-12-29T06:37:05;100945.88;;;4.51;87.67
63088;BME280;49173;43.164;27.786;2023-12-29T06:39:36;100944.03;;;4.54;87.63
63088;BME280;49173;43.164;27.786;2023-12-29T06:42:03;100948.44;;;4.55;87.52
63088;BME280;49173;43.164;27.786;2023-12-29T06:44:30;100951.94;;;4.57;87.80
63088;BME280;49173;43.164;27.786;2023-12-29T06:46:59;100952.78;;;4.59;87.27
63088;BME280;49173;43.164;27.786;2023-12-29T06:49:28;100961.59;;;4.61;87.28
63088;BME280;49173;43.164;27.786;2023-12-29T06:51:57;100956.31;;;4.60;87.44
63088;BME280;49173;43.164;27.786;2023-12-29T06:54:24;100962.50;;;4.60;87.64
63088;BME280;49173;43.164;27.786;2023-12-29T06:56:53;100955.47;;;4.59;87.85
63088;BME280;49173;43.164;27.786;2023-12-29T06:59:23;100952.78;;;4.59;87.88
63088;BME280;49173;43.164;27.786;2023-12-29T07:01:53;100950.09;;;4.61;87.72
63088;BME280;49173;43.164;27.786;2023-12-29T07:04:25;100958.00;;;4.65;87.98
63088;BME280;49173;43.164;27.786;2023-12-29T07:06:54;100959.66;;;4.69;88.04
63088;BME280;49173;43.164;27.786;2023-12-29T07:09:21;100956.03;;;4.72;87.85
63088;BME280;49173;43.164;27.786;2023-12-29T07:11:50;100955.97;;;4.77;87.85
63088;BME280;49173;43.164;27.786;2023-12-29T07:14:16;100963.84;;;4.81;87.63
63088;BME280;49173;43.164;27.786;2023-12-29T07:16:47;100956.59;;;4.88;87.30
63088;BME280;49173;43.164;27.786;2023-12-29T07:19:15;100962.69;;;4.93;86.86
63088;BME280;49173;43.164;27.786;2023-12-29T07:21:44;100967.94;;;4.96;87.10
63088;BME280;49173;43.164;27.786;2023-12-29T07:24:11;100966.94;;;5.02;87.17
63088;BME280;49173;43.164;27.786;2023-12-29T07:26:37;100964.28;;;5.02;86.96
63088;BME280;49173;43.164;27.786;2023-12-29T07:29:11;100966.84;;;5.05;87.47
63088;BME280;49173;43.164;27.786;2023-12-29T07:31:40;100960.66;;;5.04;87.49
63088;BME280;49173;43.164;27.786;2023-12-29T07:34:07;100966.72;;;5.11;87.33
63088;BME280;49173;43.164;27.786;2023-12-29T07:36:38;100967.59;;;5.11;87.40
63088;BME280;49173;43.164;27.786;2023-12-29T07:39:06;100970.16;;;5.14;87.55
63088;BME280;49173;43.164;27.786;2023-12-29T07:41:50;100966.63;;;5.15;87.67
63088;BME280;49173;43.164;27.786;2023-12-29T07:44:21;100970.94;;;5.19;87.97
63088;BME280;49173;43.164;27.786;2023-12-29T07:46:53;100968.25;;;5.22;88.31
63088;BME280;49173;43.164;27.786;2023-12-29T07:49:23;100969.91;;;5.27;88.08
63088;BME280;49173;43.164;27.786;2023-12-29T07:51:49;100969.81;;;5.31;87.74
63088;BME280;49173;43.164;27.786;2023-12-29T07:54:17;100962.59;;;5.36;87.87
63088;BME280;49173;43.164;27.786;2023-12-29T07:56:43;100968.66;;;5.43;87.69
63088;BME280;49173;43.164;27.786;2023-12-29T07:59:12;100963.19;;;5.47;87.81
63088;BME280;49173;43.164;27.786;2023-12-29T08:01:40;100961.22;;;5.56;88.04
63088;BME280;49173;43.164;27.786;2023-12-29T08:04:09;100958.34;;;5.63;88.26
63088;BME280;49173;43.164;27.786;2023-12-29T08:06:37;100966.13;;;5.72;88.36
63088;BME280;49173;43.164;27.786;2023-12-29T08:09:04;100959.69;;;5.81;88.17
63088;BME280;49173;43.164;27.786;2023-12-29T08:11:36;100955.91;;;5.90;87.89
63088;BME280;49173;43.164;27.786;2023-12-29T08:14:05;100959.25;;;5.99;87.50
63088;BME280;49173;43.164;27.786;2023-12-29T08:16:40;100958.19;;;6.05;87.47
63088;BME280;49173;43.164;27.786;2023-12-29T08:19:08;100962.31;;;6.17;87.12
63088;BME280;49173;43.164;27.786;2023-12-29T08:21:39;100967.47;;;6.23;87.02
63088;BME280;49173;43.164;27.786;2023-12-29T08:24:08;100969.84;;;6.33;86.82
63088;BME280;49173;43.164;27.786;2023-12-29T08:26:57;100962.44;;;6.45;86.64
63088;BME280;49173;43.164;27.786;2023-12-29T08:29:26;100963.91;;;6.55;86.73
63088;BME280;49173;43.164;27.786;2023-12-29T08:31:58;100955.50;;;6.69;86.31
63088;BME280;49173;43.164;27.786;2023-12-29T08:34:27;100953.25;;;6.84;86.24
63088;BME280;49173;43.164;27.786;2023-12-29T08:36:54;100955.34;;;7.03;85.83
63088;BME280;49173;43.164;27.786;2023-12-29T08:39:24;100943.25;;;7.21;85.28
63088;BME280;49173;43.164;27.786;2023-12-29T08:41:50;100942.59;;;7.40;84.85
63088;BME280;49173;43.164;27.786;2023-12-29T08:44:19;100948.38;;;7.55;84.21
63088;BME280;49173;43.164;27.786;2023-12-29T08:46:49;100945.25;;;7.67;83.73
63088;BME280;49173;43.164;27.786;2023-12-29T08:49:19;100944.91;;;7.78;83.32
63088;BME280;49173;43.164;27.786;2023-12-29T08:51:48;100949.19;;;7.83;83.38
63088;BME280;49173;43.164;27.786;2023-12-29T08:54:37;100945.38;;;7.90;83.69
63088;BME280;49173;43.164;27.786;2023-12-29T08:57:07;100945.38;;;7.90;84.23
63088;BME280;49173;43.164;27.786;2023-12-29T08:59:36;100953.47;;;7.87;84.27
63088;BME280;49173;43.164;27.786;2023-12-29T09:02:03;100949.06;;;7.86;84.74
63088;BME280;49173;43.164;27.786;2023-12-29T09:04:34;100960.69;;;7.85;84.85
63088;BME280;49173;43.164;27.786;2023-12-29T09:07:00;100956.31;;;7.83;83.76
63088;BME280;49173;43.164;27.786;2023-12-29T09:09:26;100958.34;;;7.76;83.31
63088;BME280;49173;43.164;27.786;2023-12-29T09:11:55;100952.19;;;7.72;82.98
63088;BME280;49173;43.164;27.786;2023-12-29T09:14:27;100938.97;;;7.68;82.72
63088;BME280;49173;43.164;27.786;2023-12-29T09:16:57;100949.66;;;7.68;82.37
63088;BME280;49173;43.164;27.786;2023-12-29T09:19:28;100939.88;;;7.68;82.29
63088;BME280;49173;43.164;27.786;2023-12-29T09:21:57;100935.31;;;7.72;82.22
63088;BME280;49173;43.164;27.786;2023-12-29T09:24:26;100938.63;;;7.79;81.47
63088;BME280;49173;43.164;27.786;2023-12-29T09:26:53;100934.81;;;7.86;81.10
63088;BME280;49173;43.164;27.786;2023-12-29T09:29:23;100940.09;;;7.87;80.68
63088;BME280;49173;43.164;27.786;2023-12-29T09:31:57;100931.06;;;7.91;80.75
63088;BME280;49173;43.164;27.786;2023-12-29T09:34:26;100939.81;;;7.96;80.40
63088;BME280;49173;43.164;27.786;2023-12-29T09:36:52;100931.56;;;8.03;80.55
63088;BME280;49173;43.164;27.786;2023-12-29T09:39:19;100924.19;;;8.09;80.07
63088;BME280;49173;43.164;27.786;2023-12-29T09:41:54;100921.88;;;8.23;80.41
63088;BME280;49173;43.164;27.786;2023-12-29T09:44:31;100911.56;;;8.39;79.38
63088;BME280;49173;43.164;27.786;2023-12-29T09:47:03;100914.31;;;8.60;77.23
63088;BME280;49173;43.164;27.786;2023-12-29T09:49:40;100902.13;;;8.76;76.73
63088;BME280;49173;43.164;27.786;2023-12-29T09:52:14;100907.88;;;8.89;76.59
63088;BME280;49173;43.164;27.786;2023-12-29T09:54:42;100896.00;;;8.96;76.68
63088;BME280;49173;43.164;27.786;2023-12-29T09:57:13;100899.16;;;9.05;76.08
63088;BME280;49173;43.164;27.786;2023-12-29T09:59:40;100895.13;;;9.17;75.52
63088;BME280;49173;43.164;27.786;2023-12-29T10:02:17;100897.59;;;9.22;75.20
63088;BME280;49173;43.164;27.786;2023-12-29T10:04:48;100899.09;;;9.29;74.51
63088;BME280;49173;43.164;27.786;2023-12-29T10:07:25;100890.72;;;9.36;74.11
63088;BME280;49173;43.164;27.786;2023-12-29T10:09:58;100881.47;;;9.45;73.39
63088;BME280;49173;43.164;27.786;2023-12-29T10:12:28;100885.63;;;9.52;73.10
63088;BME280;49173;43.164;27.786;2023-12-29T10:20:47;100879.66;;;9.86;71.31
63088;BME280;49173;43.164;27.786;2023-12-29T10:23:32;100873.16;;;9.92;70.70
63088;BME280;49173;43.164;27.786;2023-12-29T10:26:02;100878.94;;;10.03;70.17
63088;BME280;49173;43.164;27.786;2023-12-29T10:28:32;100874.28;;;10.07;70.08
63088;BME280;49173;43.164;27.786;2023-12-29T10:31:03;100879.63;;;10.08;70.28
63088;BME280;49173;43.164;27.786;2023-12-29T10:33:35;100873.22;;;10.11;69.92
63088;BME280;49173;43.164;27.786;2023-12-29T10:36:03;100871.22;;;10.16;69.54
63088;BME280;49173;43.164;27.786;2023-12-29T10:38:33;100874.53;;;10.23;69.99
63088;BME280;49173;43.164;27.786;2023-12-29T10:41:22;100872.63;;;10.25;70.26
63088;BME280;49173;43.164;27.786;2023-12-29T10:43:51;100871.63;;;10.27;69.38
63088;BME280;49173;43.164;27.786;2023-12-29T10:46:21;100866.66;;;10.38;69.41
63088;BME280;49173;43.164;27.786;2023-12-29T10:48:47;100865.69;;;10.39;69.48
63088;BME280;49173;43.164;27.786;2023-12-29T10:51:26;100853.03;;;10.43;69.34
63088;BME280;49173;43.164;27.786;2023-12-29T10:54:21;100851.84;;;10.49;68.93
63088;BME280;49173;43.164;27.786;2023-12-29T10:57:05;100860.41;;;10.57;69.00
63088;BME280;49173;43.164;27.786;2023-12-29T10:59:34;100858.66;;;10.56;69.18
63088;BME280;49173;43.164;27.786;2023-12-29T11:02:03;100864.13;;;10.54;68.84
63088;BME280;49173;43.164;27.786;2023-12-29T11:04:33;100855.94;;;10.57;68.26
63088;BME280;49173;43.164;27.786;2023-12-29T11:07:00;100856.72;;;10.59;68.25
63088;BME280;49173;43.164;27.786;2023-12-29T11:09:33;100855.78;;;10.60;68.64
63088;BME280;49173;43.164;27.786;2023-12-29T11:12:03;100850.13;;;10.66;68.37
63088;BME280;49173;43.164;27.786;2023-12-29T11:14:32;100838.16;;;10.73;67.93
63088;BME280;49173;43.164;27.786;2023-12-29T11:17:02;100840.66;;;10.77;67.70
63088;BME280;49173;43.164;27.786;2023-12-29T11:19:33;100820.94;;;10.78;67.29
63088;BME280;49173;43.164;27.786;2023-12-29T11:22:10;100830.38;;;10.86;67.08
63088;BME280;49173;43.164;27.786;2023-12-29T11:24:40;100821.22;;;10.90;66.44
63088;BME280;49173;43.164;27.786;2023-12-29T11:27:11;100826.28;;;10.96;66.38
63088;BME280;49173;43.164;27.786;2023-12-29T11:29:44;100818.63;;;11.06;66.30
63088;BME280;49173;43.164;27.786;2023-12-29T11:32:22;100820.88;;;11.15;66.03
63088;BME280;49173;43.164;27.786;2023-12-29T11:35:01;100821.56;;;11.19;65.93
63088;BME280;49173;43.164;27.786;2023-12-29T11:42:44;100814.63;;;11.32;65.04
63088;BME280;49173;43.164;27.786;2023-12-29T11:45:43;100810.28;;;11.47;64.32
63088;BME280;49173;43.164;27.786;2023-12-29T11:48:11;100810.94;;;11.52;64.24
63088;BME280;49173;43.164;27.786;2023-12-29T11:50:41;100811.56;;;11.57;64.12
63088;BME280;49173;43.164;27.786;2023-12-29T11:53:09;100808.56;;;11.63;64.34
63088;BME280;49173;43.164;27.786;2023-12-29T11:55:59;100810.00;;;11.70;64.74
63088;BME280;49173;43.164;27.786;2023-12-29T11:58:28;100810.53;;;11.77;64.56
63088;BME280;49173;43.164;27.786;2023-12-29T12:00:58;100808.25;;;11.87;64.53
63088;BME280;49173;43.164;27.786;2023-12-29T12:03:30;100808.88;;;11.92;64.30
63088;BME280;49173;43.164;27.786;2023-12-29T12:05:59;100803.00;;;12.01;63.68
63088;BME280;49173;43.164;27.786;2023-12-29T12:08:33;100797.28;;;12.07;63.54
63088;BME280;49173;43.164;27.786;2023-12-29T12:14:06;100798.44;;;12.19;62.01
63088;BME280;49173;43.164;27.786;2023-12-29T12:16:50;100805.47;;;12.21;61.72
63088;BME280;49173;43.164;27.786;2023-12-29T12:19:17;100799.69;;;12.29;61.35
63088;BME280;49173;43.164;27.786;2023-12-29T12:21:46;100797.66;;;12.32;60.71
63088;BME280;49173;43.164;27.786;2023-12-29T12:24:20;100790.41;;;12.34;60.65
63088;BME280;49173;43.164;27.786;2023-12-29T12:26:49;100782.66;;;12.28;60.45
63088;BME280;49173;43.164;27.786;2023-12-29T12:29:17;100780.66;;;12.32;60.68
63088;BME280;49173;43.164;27.786;2023-12-29T12:31:56;100786.31;;;12.43;60.39
63088;BME280;49173;43.164;27.786;2023-12-29T12:34:30;100787.09;;;12.45;60.17
63088;BME280;49173;43.164;27.786;2023-12-29T12:37:08;100786.84;;;12.50;60.17
63088;BME280;49173;43.164;27.786;2023-12-29T12:39:43;100783.97;;;12.53;59.87
63088;BME280;49173;43.164;27.786;2023-12-29T12:42:09;100791.88;;;12.56;59.48
63088;BME280;49173;43.164;27.786;2023-12-29T12:44:47;100779.38;;;12.55;59.16
63088;BME280;49173;43.164;27.786;2023-12-29T12:47:24;100781.13;;;12.56;58.88
63088;BME280;49173;43.164;27.786;2023-12-29T12:49:54;100785.63;;;12.55;59.06
63088;BME280;49173;43.164;27.786;2023-12-29T12:52:21;100776.69;;;12.55;59.17
63088;BME280;49173;43.164;27.786;2023-12-29T12:54:47;100781.97;;;12.56;59.00
63088;BME280;49173;43.164;27.786;2023-12-29T12:57:26;100783.81;;;12.56;58.83
63088;BME280;49173;43.164;27.786;2023-12-29T12:59:57;100784.50;;;12.59;58.73
63088;BME280;49173;43.164;27.786;2023-12-29T13:02:24;100777.22;;;12.61;58.55
63088;BME280;49173;43.164;27.786;2023-12-29T13:04:54;100786.22;;;12.60;58.44
63088;BME280;49173;43.164;27.786;2023-12-29T13:07:24;100774.53;;;12.61;58.83
63088;BME280;49173;43.164;27.786;2023-12-29T13:09:51;100785.19;;;12.63;58.23
63088;BME280;49173;43.164;27.786;2023-12-29T13:12:25;100779.91;;;12.61;58.24
63088;BME280;49173;43.164;27.786;2023-12-29T13:15:05;100772.69;;;12.62;58.13
63088;BME280;49173;43.164;27.786;2023-12-29T13:17:37;100769.13;;;12.61;58.20
63088;BME280;49173;43.164;27.786;2023-12-29T13:20:07;100769.03;;;12.63;58.55
63088;BME280;49173;43.164;27.786;2023-12-29T13:22:40;100772.75;;;12.60;58.69